Malaysia Virtual Airlines Airport Information Service

Chung-cheng Kuo-chi Chi-ch'ang

ICAO: RCTP Country: Taiwan
Latitude: 25.0777 Longitude: 121.233
Latest Arrival : MC121 (WMKK-RCTP) Latest Departure : MHJUMP (RCTP-WMKK)


WX CaptureLIVE
Data provided by noaa.gov | Fetched at 05:08:50

METAR : RCTP 290430Z 07016KT 9999 FEW015 29/19 Q1014 NOSIG RMK A2995

TAF : RCTP 282300Z 2900/3006 06013KT 9999 FEW010 BKN032 TEMPO 2904/2910 04018KT TEMPO 2912/2918 10005KT FEW010 BKN018 BKN040 BECMG 2918/2920 01010KT SCT008 BKN011 BKN040 TEMPO 2922/3003 5000 RA SCT005 BKN008 BKN030 TEMPO 3000/3006 36015KT


Runway Data for RCTP
Data provided by openaviationdata.com

Runway ID Mag Var Hdg Length Elevation Surface ILS Freq ILS Id ILS Slope
5 -3 52° 12020 ft 107 ft Concrete 111.1 ITIA 3
6 -3 52° 11001 ft 107 ft Concrete 110.7 ICKS 3
23 -3 232° 12020 ft 107 ft Concrete 109.3 ITYA 3
24 -3 232° 11001 ft 107 ft Concrete 111.9 ICJN 3

Chung-cheng Kuo-chi Chi-ch'ang, Taiwan
Use only for reference purposes



Not for navigational purposes.